Time;durP1;ratioP1;P1;durP2;ratioP2;P2;SDS_P1;SDS_P2;PMS_P1;PMS_P2;Temp;Humidity;BMP_temperature;BMP_pressure;BME280_temperature;BME280_humidity;BME280_pressure;Samples;Min_cycle;Max_cycle;Signal;HPM_P1;HPM_P2
2021/06/28 00:01:12;;;;;;;0.10;0.10;;;;;;;21.65;74.30;98817.75;4748050;30;20561;-81
2021/06/28 00:03:38;;;;;;;0.10;0.10;;;;;;;21.63;74.33;98819.88;4763879;30;20047;-79
2021/06/28 00:06:06;;;;;;;0.15;0.10;;;;;;;21.60;74.44;98815.69;4765747;30;20422;-78
2021/06/28 00:08:32;;;;;;;0.10;0.10;;;;;;;21.66;74.54;98819.41;4736591;30;20067;-79
2021/06/28 00:10:59;;;;;;;0.10;0.10;;;;;;;21.53;75.10;98819.66;4765438;30;20048;-80
2021/06/28 00:13:25;;;;;;;0.10;0.10;;;;;;;21.52;74.80;98807.00;4765625;30;20052;-80
2021/06/28 00:15:51;;;;;;;0.10;0.10;;;;;;;21.52;74.97;98796.84;4764960;30;20131;-79
2021/06/28 00:18:18;;;;;;;0.17;0.10;;;;;;;21.53;74.93;98808.66;4767655;30;20051;-80
2021/06/28 00:20:45;;;;;;;0.10;0.10;;;;;;;21.52;75.12;98813.34;4749505;30;20063;-79
2021/06/28 00:23:11;;;;;;;0.10;0.10;;;;;;;21.56;75.16;98808.19;4763321;30;20066;-79
2021/06/28 00:25:37;;;;;;;0.10;0.10;;;;;;;21.54;75.23;98810.34;4763283;30;20110;-79
2021/06/28 00:28:06;;;;;;;0.17;0.17;;;;;;;21.57;75.14;98815.34;4765168;30;20046;-81
2021/06/28 00:30:39;;;;;;;0.10;0.10;;;;;;;21.54;75.08;98813.13;4785019;29;20044;-79
2021/06/28 00:33:09;;;;;;;0.10;0.10;;;;;;;21.47;75.63;98816.00;4766391;30;20054;-80
2021/06/28 00:35:35;;;;;;;1.27;0.10;;;;;;;21.49;75.70;98829.47;4737158;30;20084;-80
2021/06/28 00:38:02;;;;;;;0.15;0.10;;;;;;;21.46;75.40;98843.72;4767310;30;20043;-80
2021/06/28 00:40:27;;;;;;;0.20;0.10;;;;;;;21.29;76.48;98880.19;4749824;30;20151;-81
2021/06/28 00:42:53;;;;;;;0.10;0.10;;;;;;;21.26;76.79;98891.66;4778529;30;20050;-80
2021/06/28 00:45:27;;;;;;;0.10;0.10;;;;;;;21.32;76.65;98890.69;4766132;30;20055;-79
2021/06/28 00:47:55;;;;;;;0.10;0.10;;;;;;;21.47;75.82;98889.41;4767307;30;20500;-79
2021/06/28 00:50:23;;;;;;;0.10;0.10;;;;;;;21.55;75.72;98886.28;4768861;30;20042;-79
2021/06/28 00:52:53;;;;;;;0.28;0.10;;;;;;;21.50;75.73;98891.66;4752600;30;20235;-79
2021/06/28 00:55:19;;;;;;;0.28;0.17;;;;;;;21.52;75.90;98889.50;4752166;30;20063;-80
2021/06/28 00:57:46;;;;;;;0.10;0.10;;;;;;;21.52;75.71;98890.34;4768084;30;20047;-80
2021/06/28 01:00:12;;;;;;;0.20;0.10;;;;;;;21.60;75.41;98886.38;4764926;30;20072;-80
2021/06/28 01:02:39;;;;;;;0.10;0.10;;;;;;;21.70;75.36;98874.78;4779695;30;20056;-80
2021/06/28 01:05:10;;;;;;;0.20;0.20;;;;;;;21.78;75.17;98857.88;4781973;29;20047;-80
2021/06/28 01:07:36;;;;;;;0.10;0.10;;;;;;;21.87;74.90;98843.50;4747852;30;20044;-79
2021/06/28 01:10:04;;;;;;;0.10;0.10;;;;;;;21.83;74.66;98839.56;4751974;30;20058;-79
2021/06/28 01:12:31;;;;;;;0.20;0.10;;;;;;;21.86;74.71;98858.31;4770887;30;20376;-81
2021/06/28 01:14:57;;;;;;;0.10;0.10;;;;;;;21.81;75.21;98880.25;4770186;30;20059;-78
2021/06/28 01:17:23;;;;;;;0.17;0.10;;;;;;;21.87;74.95;98876.53;4753235;30;20044;-79
2021/06/28 01:20:13;;;;;;;0.10;0.10;;;;;;;21.89;74.90;98846.00;4763372;30;20055;-78
2021/06/28 01:22:48;;;;;;;0.10;0.10;;;;;;;21.90;74.88;98834.75;4780156;29;20121;-79
2021/06/28 01:25:16;;;;;;;0.10;0.10;;;;;;;21.91;74.94;98832.84;4765292;30;20172;-78
2021/06/28 01:27:42;;;;;;;0.20;0.20;;;;;;;21.82;75.03;98840.63;4752286;30;20461;-79
2021/06/28 01:30:12;;;;;;;0.10;0.10;;;;;;;21.91;74.92;98841.94;4764914;30;20126;-79
2021/06/28 01:32:38;;;;;;;0.17;0.17;;;;;;;21.87;74.89;98821.50;4763687;30;20040;-79
2021/06/28 01:35:06;;;;;;;0.20;0.20;;;;;;;21.94;74.69;98820.50;4767674;30;20139;-78
2021/06/28 01:37:32;;;;;;;0.17;0.15;;;;;;;21.94;74.58;98795.72;4781176;30;20173;-79
2021/06/28 01:40:01;;;;;;;0.10;0.10;;;;;;;21.99;74.81;98798.59;4765524;30;20064;-80
2021/06/28 01:42:27;;;;;;;0.10;0.10;;;;;;;21.94;74.54;98776.44;4782181;29;20051;-78
2021/06/28 01:44:53;;;;;;;0.20;0.10;;;;;;;22.00;74.36;98780.97;4765381;30;20580;-81
2021/06/28 01:47:20;;;;;;;0.10;0.10;;;;;;;22.00;74.49;98797.50;4766914;30;20142;-78
2021/06/28 01:49:46;;;;;;;0.10;0.10;;;;;;;22.08;74.55;98795.16;4771794;30;20113;-79
2021/06/28 01:52:12;;;;;;;0.25;0.20;;;;;;;22.12;74.29;98784.50;4785278;30;20432;-78
2021/06/28 01:54:38;;;;;;;0.10;0.10;;;;;;;22.13;74.01;98778.75;4771783;30;20044;-79
2021/06/28 01:57:05;;;;;;;0.13;0.13;;;;;;;22.22;73.68;98772.88;4779175;30;20040;-80
2021/06/28 01:59:33;;;;;;;0.10;0.10;;;;;;;22.23;73.66;98764.38;4768115;30;20579;-78
2021/06/28 02:02:00;;;;;;;0.10;0.10;;;;;;;22.26;73.42;98769.38;4769635;30;20109;-79
2021/06/28 02:04:27;;;;;;;0.10;0.10;;;;;;;22.30;73.27;98759.53;4780230;30;20608;-78
2021/06/28 02:06:56;;;;;;;0.10;0.10;;;;;;;22.33;73.35;98764.53;4765201;30;20044;-80
2021/06/28 02:09:22;;;;;;;0.10;0.10;;;;;;;22.37;73.16;98765.69;4777011;30;20127;-80
2021/06/28 02:11:49;;;;;;;0.40;0.20;;;;;;;22.43;72.97;98760.31;4766135;30;20130;-80
2021/06/28 02:14:15;;;;;;;0.10;0.10;;;;;;;22.45;72.84;98742.44;4762957;30;20473;-81
2021/06/28 02:16:45;;;;;;;0.43;0.20;;;;;;;22.47;72.65;98731.16;4765601;30;20313;-80
2021/06/28 02:19:13;;;;;;;0.10;0.10;;;;;;;22.43;72.91;98724.50;4765791;30;20056;-81
2021/06/28 02:21:46;;;;;;;0.10;0.10;;;;;;;22.52;72.78;98711.94;4750616;30;20079;-80
2021/06/28 02:24:13;;;;;;;0.20;0.20;;;;;;;22.55;72.51;98705.94;4766126;30;20059;-79
2021/06/28 02:26:40;;;;;;;0.30;0.20;;;;;;;22.57;72.40;98701.03;4766193;30;20047;-80
2021/06/28 02:29:06;;;;;;;0.15;0.10;;;;;;;22.66;72.24;98707.75;4745215;30;20482;-79
2021/06/28 02:31:32;;;;;;;0.25;0.17;;;;;;;22.71;72.29;98694.06;4764351;30;20554;-79
2021/06/28 02:33:58;;;;;;;0.15;0.15;;;;;;;22.72;72.29;98712.28;4748609;30;20348;-77
2021/06/28 02:36:26;;;;;;;0.13;0.13;;;;;;;22.73;72.42;98719.44;4777043;30;20043;-79
2021/06/28 02:38:53;;;;;;;0.75;0.20;;;;;;;22.83;72.22;98714.09;4761798;30;20075;-82
2021/06/28 02:41:20;;;;;;;0.10;0.10;;;;;;;22.96;71.73;98707.38;4762105;30;20043;-80
2021/06/28 02:44:06;;;;;;;0.10;0.10;;;;;;;23.06;71.11;98685.47;4717170;30;20544;-79
2021/06/28 02:46:32;;;;;;;0.10;0.10;;;;;;;23.21;70.41;98681.25;4753146;30;20048;-81
2021/06/28 02:48:58;;;;;;;0.10;0.10;;;;;;;23.23;70.24;98677.13;4757148;30;20054;-79
2021/06/28 02:51:25;;;;;;;0.43;0.10;;;;;;;23.30;69.95;98685.22;4757744;30;20047;-79
2021/06/28 02:53:53;;;;;;;0.10;0.10;;;;;;;23.42;69.67;98687.84;4757745;30;20047;-79
2021/06/28 02:56:19;;;;;;;0.15;0.15;;;;;;;23.53;69.20;98682.16;4778255;30;20115;-81
2021/06/28 02:58:55;;;;;;;0.20;0.20;;;;;;;23.61;68.86;98674.50;4764819;29;20048;-78
2021/06/28 03:01:24;;;;;;;0.20;0.20;;;;;;;23.66;68.69;98664.38;4765104;30;20398;-80
2021/06/28 03:04:04;;;;;;;0.30;0.20;;;;;;;23.78;68.52;98659.56;5155897;27;20420;-80
2021/06/28 03:06:43;;;;;;;0.40;0.30;;;;;;;23.91;67.82;98651.91;5108392;27;20392;-81
2021/06/28 03:09:22;;;;;;;0.47;0.20;;;;;;;24.13;67.22;98662.88;5109633;27;20919;-81
2021/06/28 03:12:04;;;;;;;0.13;0.13;;;;;;;24.28;67.07;98668.53;5113946;27;20406;-82
2021/06/28 03:14:43;;;;;;;0.43;0.20;;;;;;;24.47;66.23;98674.50;5088645;27;20129;-81
2021/06/28 03:17:24;;;;;;;0.10;0.10;;;;;;;24.69;65.85;98647.56;5106099;27;20431;-80
2021/06/28 03:20:05;;;;;;;0.20;0.20;;;;;;;24.60;65.93;98670.44;5100534;27;20125;-78
2021/06/28 03:22:44;;;;;;;0.10;0.10;;;;;;;24.64;65.66;98663.25;5097895;27;20421;-80
2021/06/28 03:25:24;;;;;;;0.40;0.20;;;;;;;24.62;65.52;98662.72;5103595;27;20391;-79
2021/06/28 03:28:04;;;;;;;0.10;0.10;;;;;;;24.46;65.82;98645.19;5106852;27;20427;-80
2021/06/28 03:30:43;;;;;;;0.22;0.20;;;;;;;24.50;65.63;98652.69;5101490;27;20388;-79
2021/06/28 03:33:23;;;;;;;0.10;0.10;;;;;;;24.50;65.43;98655.47;5102537;27;20377;-80
2021/06/28 03:36:03;;;;;;;0.10;0.10;;;;;;;24.44;65.41;98663.97;5080521;27;20765;-81
2021/06/28 03:38:41;;;;;;;0.20;0.20;;;;;;;24.53;65.30;98667.91;5113222;27;20386;-81
2021/06/28 03:41:23;;;;;;;0.13;0.13;;;;;;;24.63;65.06;98661.63;5065160;28;20420;-81
2021/06/28 03:44:01;;;;;;;0.20;0.20;;;;;;;24.69;64.46;98641.22;5121512;27;20396;-83
2021/06/28 03:46:40;;;;;;;0.20;0.20;;;;;;;25.08;63.52;98632.50;5092659;28;20424;-82
2021/06/28 03:49:20;;;;;;;0.20;0.20;;;;;;;25.23;62.99;98636.22;5070277;28;20466;-83
2021/06/28 03:52:01;;;;;;;0.35;0.20;;;;;;;25.29;63.35;98627.91;5105839;27;20387;-81
2021/06/28 03:54:43;;;;;;;0.20;0.20;;;;;;;25.67;61.63;98618.31;5102298;27;20435;-81
2021/06/28 03:57:23;;;;;;;0.30;0.30;;;;;;;25.65;61.79;98609.44;5093771;28;20440;-83
2021/06/28 04:00:17;;;;;;;0.20;0.20;;;;;;;25.91;61.15;98613.09;5109434;27;20133;-82
2021/06/28 04:02:59;;;;;;;0.20;0.20;;;;;;;26.24;60.28;98605.31;5063714;28;20440;-84
2021/06/28 04:05:41;;;;;;;0.52;0.30;;;;;;;26.51;59.48;98610.56;5123919;27;20391;-82
2021/06/28 04:08:21;;;;;;;0.20;0.20;;;;;;;26.44;59.63;98616.38;5110499;27;20437;-81
2021/06/28 04:11:17;;;;;;;0.20;0.20;;;;;;;26.60;58.97;98608.88;5072170;28;20404;-82
2021/06/28 04:13:57;;;;;;;0.30;0.30;;;;;;;26.48;58.95;98605.59;5068620;28;20398;-81
2021/06/28 04:16:35;;;;;;;0.20;0.20;;;;;;;26.60;59.16;98597.78;5068403;28;20391;-82
2021/06/28 04:19:15;;;;;;;0.20;0.20;;;;;;;26.76;58.34;98588.28;5088182;28;20397;-84
2021/06/28 04:21:54;;;;;;;0.20;0.20;;;;;;;26.82;58.47;98589.94;5114296;27;20417;-84
2021/06/28 04:24:37;;;;;;;0.20;0.20;;;;;;;27.06;57.54;98592.91;5109904;27;20918;-84
2021/06/28 04:27:20;;;;;;;0.22;0.20;;;;;;;27.37;57.50;98590.78;5115152;27;20202;-81
2021/06/28 04:30:00;;;;;;;0.30;0.30;;;;;;;27.65;56.15;98583.66;5092819;27;20404;-83
2021/06/28 04:32:45;;;;;;;0.30;0.30;;;;;;;27.53;56.50;98591.50;5171675;27;20415;-84
2021/06/28 04:35:34;;;;;;;0.30;0.20;;;;;;;27.99;55.14;98580.09;5075441;28;20397;-84
2021/06/28 04:38:30;;;;;;;0.30;0.30;;;;;;;27.80;55.51;98576.38;5114332;27;20424;-82
2021/06/28 04:41:11;;;;;;;0.30;0.30;;;;;;;27.89;55.27;98563.50;5114326;27;20408;-84
2021/06/28 04:43:53;;;;;;;0.80;0.40;;;;;;;28.23;54.47;98573.72;5111747;27;20397;-82
2021/06/28 04:46:45;;;;;;;0.40;0.40;;;;;;;28.06;54.63;98575.00;5109932;27;20386;-81
2021/06/28 04:49:27;;;;;;;0.30;0.30;;;;;;;28.54;53.70;98597.34;5064041;28;20414;-83
2021/06/28 04:52:14;;;;;;;0.30;0.30;;;;;;;28.99;52.68;98614.66;5068450;28;20406;-83
2021/06/28 04:54:55;;;;;;;0.40;0.40;;;;;;;29.31;51.73;98610.34;5090316;27;20390;-82
2021/06/28 04:57:41;;;;;;;0.20;0.20;;;;;;;29.18;51.94;98617.50;5105390;27;20524;-81
2021/06/28 05:00:27;;;;;;;0.30;0.30;;;;;;;29.37;51.64;98619.47;5123437;27;20416;-83
2021/06/28 05:03:20;;;;;;;0.30;0.20;;;;;;;29.18;51.78;98619.41;5053138;28;20145;-84
2021/06/28 05:06:09;;;;;;;0.47;0.47;;;;;;;29.65;50.82;98626.84;5103821;27;20845;-84
2021/06/28 05:09:01;;;;;;;0.50;0.50;;;;;;;30.23;49.48;98612.56;5030924;28;20069;-82
2021/06/28 05:11:54;;;;;;;0.50;0.50;;;;;;;30.40;48.69;98598.03;5079703;28;20435;-85
2021/06/28 05:14:52;;;;;;;0.40;0.40;;;;;;;30.83;48.22;98603.38;5122842;27;20445;-85
2021/06/28 05:18:01;;;;;;;0.20;0.20;;;;;;;30.72;48.11;98599.13;5094766;27;20402;-82
2021/06/28 05:20:46;;;;;;;0.30;0.30;;;;;;;30.02;49.57;98597.28;5133223;27;20377;-81
2021/06/28 05:23:33;;;;;;;0.10;0.10;;;;;;;30.39;48.74;98601.16;5123423;27;20621;-80
2021/06/28 05:26:14;;;;;;;0.22;0.22;;;;;;;30.19;49.58;98610.69;5089448;28;20416;-82
2021/06/28 05:29:05;;;;;;;0.50;0.50;;;;;;;30.92;47.49;98598.72;5084886;28;20405;-83
2021/06/28 05:31:56;;;;;;;0.30;0.30;;;;;;;31.11;46.47;98594.97;5097792;28;20430;-83
2021/06/28 05:35:13;;;;;;;0.22;0.22;;;;;;;30.36;48.04;98585.84;5101097;22;20432;-84
2021/06/28 05:38:06;;;;;;;0.20;0.20;;;;;;;30.33;49.27;98596.78;4994772;28;20074;-84
2021/06/28 05:40:58;;;;;;;0.30;0.20;;;;;;;30.00;50.33;98611.53;6300743;22;20474;-85
2021/06/28 05:43:47;;;;;;;0.30;0.30;;;;;;;29.99;50.25;98618.25;6185790;23;20057;-86
2021/06/28 05:46:29;;;;;;;0.15;0.15;;;;;;;29.91;50.24;98621.75;5130479;27;20457;-82
2021/06/28 05:49:08;;;;;;;0.30;0.30;;;;;;;29.78;50.56;98603.81;5057990;28;20443;-82
2021/06/28 05:51:50;;;;;;;0.17;0.17;;;;;;;29.86;50.62;98602.28;5078833;28;20728;-85
2021/06/28 05:54:31;;;;;;;0.20;0.20;;;;;;;29.52;51.45;98608.94;5104840;27;20542;-84
2021/06/28 05:57:19;;;;;;;0.50;0.50;;;;;;;30.32;49.92;98623.84;5144501;27;20208;-83
2021/06/28 06:00:10;;;;;;;0.30;0.30;;;;;;;30.74;48.45;98624.72;5056375;28;20433;-84
2021/06/28 06:03:00;;;;;;;0.20;0.20;;;;;;;30.36;49.48;98610.94;5074752;27;20376;-84
2021/06/28 06:05:46;;;;;;;0.15;0.15;;;;;;;29.90;50.67;98616.44;5122202;27;20178;-84
2021/06/28 06:08:34;;;;;;;0.30;0.25;;;;;;;29.60;51.87;98612.19;5075022;28;20412;-81
2021/06/28 06:11:13;;;;;;;0.20;0.20;;;;;;;29.64;51.81;98613.25;5095111;27;20415;-85
2021/06/28 06:14:00;;;;;;;0.50;0.50;;;;;;;30.18;50.37;98617.41;5070409;28;20447;-83
2021/06/28 06:16:51;;;;;;;0.70;0.70;;;;;;;31.05;48.18;98626.94;5067851;28;20196;-84
2021/06/28 06:19:34;;;;;;;0.65;0.60;;;;;;;31.76;46.88;98636.56;5117209;27;20424;-84
2021/06/28 06:22:20;;;;;;;0.70;0.70;;;;;;;32.48;45.53;98629.22;5080118;28;20801;-84
2021/06/28 06:25:03;;;;;;;0.60;0.60;;;;;;;32.97;44.46;98627.34;5084066;28;20440;-82
2021/06/28 06:27:49;;;;;;;0.60;0.60;;;;;;;33.57;43.78;98635.91;5115283;27;20407;-83
2021/06/28 06:30:33;;;;;;;0.60;0.60;;;;;;;33.52;42.85;98624.03;5060911;27;20438;-86
2021/06/28 06:33:43;;;;;;;0.65;0.65;;;;;;;34.25;42.27;98627.00;5135262;27;20185;-86
2021/06/28 06:36:37;;;;;;;0.60;0.60;;;;;;;33.96;42.37;98636.09;5103489;27;21048;-85
2021/06/28 06:39:23;;;;;;;0.70;0.70;;;;;;;34.25;41.50;98627.00;5097886;27;20396;-84
2021/06/28 06:42:19;;;;;;;0.65;0.65;;;;;;;34.13;41.90;98624.88;5099324;27;20398;-86
2021/06/28 06:45:37;;;;;;;0.60;0.60;;;;;;;34.72;41.14;98619.47;5118450;27;20398;-85
2021/06/28 06:48:38;;;;;;;0.60;0.60;;;;;;;35.19;39.62;98627.88;5404076;22;20102;-84
2021/06/28 06:51:32;;;;;;;0.65;0.65;;;;;;;35.62;38.91;98628.78;5122601;27;20415;-83
2021/06/28 06:54:10;;;;;;;0.60;0.60;;;;;;;35.01;40.11;98629.94;5087339;22;20061;-86
2021/06/28 07:07:50;;;;;;;0.70;0.70;;;;;;;35.40;39.73;98632.72;5151602;27;20437;-84
2021/06/28 07:10:54;;;;;;;0.75;0.75;;;;;;;36.51;37.58;98629.34;5130359;27;20421;-86
2021/06/28 07:17:50;;;;;;;0.77;0.77;;;;;;;37.16;36.81;98641.66;4842097;24;20070;-85
2021/06/28 07:20:42;;;;;;;0.93;0.93;;;;;;;37.32;36.33;98640.94;5074927;27;20436;-86
2021/06/28 07:23:30;;;;;;;0.80;0.80;;;;;;;37.65;35.61;98650.06;5114186;28;21557;-87
2021/06/28 07:26:25;;;;;;;0.70;0.70;;;;;;;37.77;35.42;98648.41;5114938;27;20394;-85
2021/06/28 07:29:21;;;;;;;0.90;0.90;;;;;;;37.97;35.57;98650.25;5073856;28;20398;-85
2021/06/28 07:32:48;;;;;;;0.30;0.30;;;;;;;36.09;38.65;98651.94;5122861;22;20441;-87
2021/06/28 07:35:19;;;;;;;0.73;0.73;;;;;;;36.36;38.02;98653.31;5357904;22;20052;-85
2021/06/28 07:38:39;;;;;;;0.82;0.82;;;;;;;36.38;38.19;98661.41;6275887;22;20482;-86
2021/06/28 07:41:40;;;;;;;0.40;0.40;;;;;;;36.19;38.66;98651.47;5572455;22;20423;-87
2021/06/28 07:55:17;;;;;;;0.20;0.20;;;;;;;33.90;43.92;98660.69;5127146;27;20511;-85
2021/06/28 07:58:40;;;;;;;1.02;1.02;;;;;;;35.77;40.25;98659.09;5152384;27;20902;-86
2021/06/28 08:01:22;;;;;;;0.80;0.80;;;;;;;35.82;39.88;98644.00;5115072;27;20437;-81
2021/06/28 08:04:06;;;;;;;0.90;0.90;;;;;;;35.64;39.97;98641.31;5095223;27;20443;-82
2021/06/28 08:06:47;;;;;;;0.95;0.95;;;;;;;36.06;39.59;98637.72;5116418;27;20392;-82
2021/06/28 08:09:44;;;;;;;1.00;1.00;;;;;;;36.27;38.99;98638.47;5098801;27;20417;-83
2021/06/28 08:12:31;;;;;;;0.40;0.40;;;;;;;35.42;41.45;98647.25;5111715;27;20443;-83
2021/06/28 08:16:14;;;;;;;0.10;0.10;;;;;;;35.68;40.61;98638.66;5074104;28;20449;-85
2021/06/28 08:29:50;;;;;;;0.90;0.90;;;;;;;37.59;37.48;98602.72;6189186;22;2567217;-82
2021/06/28 08:43:21;;;;;;;0.63;0.63;;;;;;;36.39;38.60;98562.53;5099195;27;20388;-85
2021/06/28 08:56:47;;;;;;;0.40;0.40;;;;;;;34.32;41.58;98554.34;5176345;27;20421;-83
2021/06/28 08:59:29;;;;;;;0.20;0.20;;;;;;;34.50;41.59;98529.88;5110777;27;20429;-84
2021/06/28 09:02:17;;;;;;;0.10;0.10;;;;;;;34.20;42.32;98506.53;5083021;27;20795;-83
2021/06/28 09:05:06;;;;;;;0.10;0.10;;;;;;;33.89;43.10;98507.56;5105460;27;20415;-83
2021/06/28 09:08:14;;;;;;;0.10;0.10;;;;;;;32.84;45.46;98495.50;5058786;28;20425;-81
2021/06/28 09:10:57;;;;;;;0.10;0.10;;;;;;;32.73;46.23;98504.56;5087669;27;20360;-85
2021/06/28 09:13:47;;;;;;;0.17;0.10;;;;;;;32.15;46.94;98512.03;5063944;28;20451;-83
2021/06/28 09:16:32;;;;;;;0.10;0.10;;;;;;;31.94;47.45;98506.97;5053163;28;20444;-85
2021/06/28 09:19:22;;;;;;;0.10;0.10;;;;;;;31.76;47.87;98499.59;5097867;27;20419;-83
2021/06/28 09:22:32;;;;;;;0.10;0.10;;;;;;;31.69;48.40;98488.03;5146580;27;20444;-84
2021/06/28 09:25:35;;;;;;;0.00;0.00;;;;;;;31.01;50.05;98489.94;5101991;28;20432;-86
2021/06/28 09:28:55;;;;;;;0.10;0.10;;;;;;;30.44;51.56;98486.69;5148746;22;20480;-85
2021/06/28 09:35:41;;;;;;;0.10;0.10;;;;;;;30.00;57.25;98513.97;4671209;30;20062;-84
2021/06/28 09:38:38;;;;;;;0.10;0.10;;;;;;;29.53;58.61;98552.09;5124239;27;20405;-86
2021/06/28 09:41:41;;;;;;;0.10;0.10;;;;;;;28.95;61.60;98568.22;5161972;27;20252;-84
2021/06/28 09:44:28;;;;;;;0.10;0.10;;;;;;;28.40;61.79;98549.13;5118790;27;20422;-85
2021/06/28 09:47:41;;;;;;;0.10;0.10;;;;;;;27.73;63.42;98575.84;5074786;27;20458;-87
2021/06/28 09:50:26;;;;;;;0.55;0.20;;;;;;;27.10;64.27;98596.75;5134383;27;20430;-85
2021/06/28 09:53:10;;;;;;;0.20;0.20;;;;;;;25.89;68.34;98582.09;5109139;23;20052;-86
2021/06/28 09:56:32;;;;;;;0.20;0.10;;;;;;;24.55;70.26;98591.09;5129706;27;20412;-85
2021/06/28 09:59:32;;;;;;;0.10;0.10;;;;;;;24.34;69.20;98589.28;5100809;27;20391;-83
2021/06/28 10:02:40;;;;;;;0.20;0.20;;;;;;;23.77;69.48;98599.94;5093838;27;20556;-83
2021/06/28 10:06:01;;;;;;;0.20;0.20;;;;;;;23.48;75.63;98615.91;5100327;27;20427;-82
2021/06/28 10:09:15;;;;;;;0.20;0.20;;;;;;;22.86;75.48;98675.00;5104175;27;21104;-83
2021/06/28 10:12:20;;;;;;;0.10;0.10;;;;;;;22.93;76.31;98718.13;5137539;27;20527;-84
2021/06/28 10:15:32;;;;;;;0.20;0.20;;;;;;;22.51;78.96;98743.34;5148532;27;20719;-82
2021/06/28 10:18:42;;;;;;;0.10;0.10;;;;;;;22.38;80.12;98744.53;5085721;27;20400;-83
2021/06/28 10:21:45;;;;;;;0.20;0.20;;;;;;;22.67;80.59;98681.03;5054483;28;20394;-82
2021/06/28 10:25:05;;;;;;;0.45;0.22;;;;;;;22.83;79.34;98681.00;5137067;27;20422;-81
2021/06/28 10:28:39;;;;;;;0.10;0.10;;;;;;;22.84;76.91;98655.09;5177499;27;20419;-81
2021/06/28 10:31:49;;;;;;;0.20;0.20;;;;;;;22.68;80.80;98642.22;5107875;27;20145;-80
2021/06/28 10:35:25;;;;;;;0.10;0.10;;;;;;;22.73;79.64;98634.00;5096094;27;20466;-79
2021/06/28 10:38:44;;;;;;;0.10;0.10;;;;;;;22.77;78.12;98637.94;5095574;27;20425;-82
2021/06/28 10:51:54;;;;;;;0.10;0.10;;;;;;;23.28;76.01;98677.19;5086650;28;20154;-83
2021/06/28 10:54:41;;;;;;;0.10;0.10;;;;;;;23.23;74.87;98666.09;5055911;28;20048;-82
2021/06/28 10:57:40;;;;;;;0.20;0.20;;;;;;;23.43;74.53;98650.88;5078657;28;20059;-82
2021/06/28 11:01:03;;;;;;;0.10;0.10;;;;;;;23.55;74.12;98637.78;5052256;28;20504;-82
2021/06/28 11:04:13;;;;;;;0.10;0.10;;;;;;;23.75;74.62;98620.59;5075607;28;20047;-82
2021/06/28 11:07:11;;;;;;;0.10;0.10;;;;;;;23.85;72.54;98614.34;5048542;28;20048;-82
2021/06/28 11:09:59;;;;;;;0.10;0.10;;;;;;;23.86;73.41;98611.31;5068514;28;20301;-83
2021/06/28 11:12:47;;;;;;;0.10;0.10;;;;;;;23.94;74.03;98612.75;5053855;28;20067;-81
2021/06/28 11:15:33;;;;;;;0.10;0.10;;;;;;;23.85;74.29;98614.34;5087220;28;20043;-84
2021/06/28 11:18:30;;;;;;;0.20;0.20;;;;;;;23.94;73.61;98624.63;5053878;28;20078;-85
2021/06/28 11:21:40;;;;;;;0.20;0.20;;;;;;;24.26;72.76;98627.34;5089867;28;20067;-84
2021/06/28 11:24:11;;;;;;;0.32;0.20;;;;;;;24.47;72.43;98622.00;5041141;28;20013;-84
2021/06/28 11:27:18;;;;;;;0.20;0.20;;;;;;;24.92;72.83;98628.88;5121233;22;20437;-83
2021/06/28 12:20:57;;;;;;;0.10;0.10;;;;;;;25.84;66.10;98656.84;6257217;22;20380;-85
2021/06/28 12:24:10;;;;;;;0.10;0.10;;;;;;;25.38;67.92;98682.47;6211252;22;20028;31
2021/06/28 12:30:22;;;;;;;0.10;0.10;;;;;;;24.86;69.66;98657.59;6285541;22;20106;-85
2021/06/28 12:40:30;;;;;;;0.10;0.10;;;;;;;24.97;71.23;98621.44;6297877;22;20698;-84
2021/06/28 12:57:42;;;;;;;0.10;0.10;;;;;;;23.55;76.45;98610.19;6198600;22;20027;31
2021/06/28 13:23:03;;;;;;;0.10;0.10;;;;;;;23.51;77.50;98505.03;6102795;22;18282486;-87
2021/06/28 13:36:34;;;;;;;0.10;0.10;;;;;;;24.02;75.30;98522.00;5152624;22;24071140;-86
2021/06/28 13:57:25;;;;;;;0.10;0.10;;;;;;;24.32;73.85;98519.69;5351523;23;17755682;-87
2021/06/28 14:10:33;;;;;;;0.10;0.10;;;;;;;23.88;74.86;98533.75;5608226;22;15203791;-86
2021/06/28 14:13:47;;;;;;;0.10;0.10;;;;;;;23.82;75.10;98539.22;5223335;22;20433;-86
2021/06/28 14:31:12;;;;;;;;;;;;;;;23.70;76.00;98538.59;6254570;22;20035;31
2021/06/28 15:18:57;;;;;;;0.10;0.10;;;;;;;24.17;73.23;98517.63;5446720;22;18866371;-80
2021/06/28 15:22:07;;;;;;;0.10;0.10;;;;;;;24.23;73.01;98514.63;5112971;27;20433;-82
2021/06/28 15:25:03;;;;;;;0.10;0.10;;;;;;;24.14;72.88;98512.66;5093316;27;20415;-82
2021/06/28 15:27:55;;;;;;;0.20;0.10;;;;;;;24.12;73.41;98514.84;5140491;27;20436;-84
2021/06/28 15:31:04;;;;;;;0.20;0.10;;;;;;;24.19;72.90;98512.69;5088185;27;20659;-83
2021/06/28 15:34:01;;;;;;;0.20;0.20;;;;;;;24.26;73.84;98511.34;5127684;27;20413;-82
2021/06/28 15:37:00;;;;;;;0.10;0.10;;;;;;;24.26;72.99;98525.16;5094638;27;20533;-82
2021/06/28 15:39:57;;;;;;;0.10;0.10;;;;;;;24.36;72.23;98520.78;5192876;27;20451;-82
2021/06/28 15:42:55;;;;;;;0.10;0.10;;;;;;;24.35;72.70;98514.41;5089848;27;20998;-82
2021/06/28 15:45:55;;;;;;;0.10;0.10;;;;;;;24.39;72.77;98521.13;5193708;27;20482;-83
2021/06/28 15:48:55;;;;;;;0.10;0.10;;;;;;;24.46;70.84;98509.81;5093438;27;20916;-81
2021/06/28 15:51:49;;;;;;;0.10;0.10;;;;;;;24.39;71.00;98514.72;5091767;27;20911;-83
2021/06/28 15:54:48;;;;;;;0.10;0.10;;;;;;;24.43;71.73;98521.41;5125768;27;20446;-82
2021/06/28 15:57:55;;;;;;;0.10;0.10;;;;;;;24.44;72.05;98528.59;5073527;28;20409;-85
2021/06/28 16:00:58;;;;;;;0.17;0.17;;;;;;;24.43;71.83;98538.00;5103855;27;20415;-84
2021/06/28 16:04:01;;;;;;;0.10;0.10;;;;;;;24.29;73.20;98538.44;5089418;27;20349;-83
2021/06/28 16:07:02;;;;;;;0.20;0.20;;;;;;;24.33;72.87;98526.84;5177771;27;20404;-81
2021/06/28 16:09:55;;;;;;;0.30;0.10;;;;;;;24.27;73.78;98524.03;5082696;27;20409;-81
2021/06/28 16:13:02;;;;;;;0.10;0.10;;;;;;;24.21;74.60;98519.63;5134418;27;20452;-85
2021/06/28 16:16:05;;;;;;;0.15;0.10;;;;;;;24.18;74.83;98520.16;5090284;27;20450;-83
2021/06/28 16:19:06;;;;;;;0.20;0.10;;;;;;;24.17;75.13;98515.72;5106762;27;20406;-85
2021/06/28 16:22:02;;;;;;;0.10;0.10;;;;;;;24.13;75.74;98520.09;5114358;27;20417;-83
2021/06/28 16:25:07;;;;;;;0.20;0.20;;;;;;;24.13;75.15;98516.50;5132668;27;20394;-84
2021/06/28 16:28:23;;;;;;;0.10;0.10;;;;;;;24.21;74.68;98519.63;5127682;27;20405;-82
2021/06/28 16:31:32;;;;;;;0.10;0.10;;;;;;;24.13;75.57;98528.38;5142032;27;19949;-83
2021/06/28 16:34:29;;;;;;;0.10;0.10;;;;;;;24.10;75.27;98528.94;5083405;27;20393;-84
2021/06/28 16:37:22;;;;;;;0.10;0.10;;;;;;;24.07;75.77;98521.19;5074590;28;20408;-84
2021/06/28 16:40:35;;;;;;;0.10;0.10;;;;;;;24.05;75.60;98521.44;5135584;27;20439;-83
2021/06/28 16:43:47;;;;;;;0.10;0.10;;;;;;;24.04;75.95;98528.06;5165767;27;20688;-81
2021/06/28 16:46:46;;;;;;;0.10;0.10;;;;;;;23.92;76.57;98532.13;5125496;27;20398;-82
2021/06/28 16:49:55;;;;;;;0.10;0.10;;;;;;;23.85;76.97;98540.66;5105685;27;20396;-84
2021/06/28 16:52:58;;;;;;;0.10;0.10;;;;;;;23.83;76.77;98540.88;5108512;27;20395;-83
2021/06/28 16:56:11;;;;;;;0.10;0.10;;;;;;;23.94;76.53;98538.22;5121029;27;20398;-83
2021/06/28 16:59:11;;;;;;;0.10;0.10;;;;;;;23.95;76.05;98546.25;5087886;27;20414;-82
2021/06/28 17:02:23;;;;;;;0.10;0.10;;;;;;;24.02;75.97;98537.69;5129474;27;20400;-82
2021/06/28 17:05:27;;;;;;;0.10;0.10;;;;;;;23.88;76.80;98522.69;5090066;27;20447;-83
2021/06/28 17:08:33;;;;;;;0.10;0.10;;;;;;;23.84;76.79;98530.72;5114132;27;20365;-83
2021/06/28 17:11:39;;;;;;;0.10;0.10;;;;;;;23.70;77.51;98530.31;5123586;27;22282;-81
2021/06/28 17:14:43;;;;;;;0.10;0.10;;;;;;;23.65;78.05;98527.47;5093875;27;20422;-83
2021/06/28 17:17:48;;;;;;;0.73;0.10;;;;;;;23.49;78.50;98522.94;5092791;27;20547;-85
2021/06/28 17:20:38;;;;;;;0.10;0.10;;;;;;;23.43;79.29;98521.22;5076810;23;20074;-83
2021/06/28 17:24:06;;;;;;;0.10;0.10;;;;;;;23.52;78.82;98516.91;5105055;27;20403;-83
2021/06/28 17:46:15;;;;;;;0.10;0.10;;;;;;;23.54;79.21;98509.19;5293577;22;19192291;-82
2021/06/28 17:49:17;;;;;;;0.10;0.10;;;;;;;23.57;79.25;98500.38;5051492;27;20430;-83
2021/06/28 17:52:17;;;;;;;0.10;0.10;;;;;;;23.61;78.62;98501.50;5119335;27;20478;-83
2021/06/28 17:55:14;;;;;;;0.20;0.20;;;;;;;23.56;78.90;98498.72;5086556;27;20414;-83
2021/06/28 17:58:19;;;;;;;0.10;0.10;;;;;;;23.66;77.77;98496.03;5079318;27;20443;-83